sensor_id;sensor_type;location;lat;lon;timestamp;temperature;humidity
41294;DHT22;27037;52.010;4.446;2023-10-19T00:02:05;12.60;99.90
41294;DHT22;27037;52.010;4.446;2023-10-19T00:04:32;12.60;99.90
41294;DHT22;27037;52.010;4.446;2023-10-19T00:07:00;12.70;99.90
41294;DHT22;27037;52.010;4.446;2023-10-19T00:09:26;12.70;99.90
41294;DHT22;27037;52.010;4.446;2023-10-19T00:11:57;12.80;99.90
41294;DHT22;27037;52.010;4.446;2023-10-19T00:14:23;12.80;99.90
41294;DHT22;27037;52.010;4.446;2023-10-19T00:16:51;12.80;99.90
41294;DHT22;27037;52.010;4.446;2023-10-19T00:19:25;12.80;99.90
41294;DHT22;27037;52.010;4.446;2023-10-19T00:21:53;12.80;99.90
41294;DHT22;27037;52.010;4.446;2023-10-19T00:24:27;12.80;99.90
41294;DHT22;27037;52.010;4.446;2023-10-19T00:26:53;12.90;99.90
41294;DHT22;27037;52.010;4.446;2023-10-19T00:29:20;12.90;99.90
41294;DHT22;27037;52.010;4.446;2023-10-19T00:32:01;12.90;99.90
41294;DHT22;27037;52.010;4.446;2023-10-19T00:34:28;13.00;99.90
41294;DHT22;27037;52.010;4.446;2023-10-19T00:36:54;13.00;99.90
41294;DHT22;27037;52.010;4.446;2023-10-19T00:39:26;13.00;99.90
41294;DHT22;27037;52.010;4.446;2023-10-19T00:41:52;13.10;99.90
41294;DHT22;27037;52.010;4.446;2023-10-19T00:44:23;13.10;99.90
41294;DHT22;27037;52.010;4.446;2023-10-19T00:46:56;13.10;99.90
41294;DHT22;27037;52.010;4.446;2023-10-19T00:49:30;13.10;99.90
41294;DHT22;27037;52.010;4.446;2023-10-19T00:51:58;13.10;99.90
41294;DHT22;27037;52.010;4.446;2023-10-19T00:54:32;13.20;99.90
41294;DHT22;27037;52.010;4.446;2023-10-19T00:57:01;13.20;99.90
41294;DHT22;27037;52.010;4.446;2023-10-19T00:59:33;13.10;99.90
41294;DHT22;27037;52.010;4.446;2023-10-19T01:02:12;13.20;99.90
41294;DHT22;27037;52.010;4.446;2023-10-19T01:04:54;13.30;99.90
41294;DHT22;27037;52.010;4.446;2023-10-19T01:07:33;13.30;99.90
41294;DHT22;27037;52.010;4.446;2023-10-19T01:10:04;13.30;99.90
41294;DHT22;27037;52.010;4.446;2023-10-19T01:12:50;13.40;99.90
41294;DHT22;27037;52.010;4.446;2023-10-19T01:15:18;13.50;99.90
41294;DHT22;27037;52.010;4.446;2023-10-19T01:17:58;13.50;99.90
41294;DHT22;27037;52.010;4.446;2023-10-19T01:20:26;13.60;99.90
41294;DHT22;27037;52.010;4.446;2023-10-19T01:23:00;13.70;99.90
41294;DHT22;27037;52.010;4.446;2023-10-19T01:25:48;13.90;99.90
41294;DHT22;27037;52.010;4.446;2023-10-19T01:28:30;14.00;99.90
41294;DHT22;27037;52.010;4.446;2023-10-19T01:31:12;14.10;99.90
41294;DHT22;27037;52.010;4.446;2023-10-19T01:33:48;14.20;99.90
41294;DHT22;27037;52.010;4.446;2023-10-19T01:36:14;14.30;99.90
41294;DHT22;27037;52.010;4.446;2023-10-19T01:38:41;14.30;99.90
41294;DHT22;27037;52.010;4.446;2023-10-19T01:41:08;14.40;99.90
41294;DHT22;27037;52.010;4.446;2023-10-19T01:43:44;14.50;99.90
41294;DHT22;27037;52.010;4.446;2023-10-19T01:46:12;14.60;99.90
41294;DHT22;27037;52.010;4.446;2023-10-19T01:48:39;14.60;99.90
41294;DHT22;27037;52.010;4.446;2023-10-19T01:51:10;14.60;99.90
41294;DHT22;27037;52.010;4.446;2023-10-19T01:53:37;14.60;99.90
41294;DHT22;27037;52.010;4.446;2023-10-19T01:56:10;14.60;99.90
41294;DHT22;27037;52.010;4.446;2023-10-19T01:58:39;14.70;99.90
41294;DHT22;27037;52.010;4.446;2023-10-19T02:01:06;14.70;99.90
41294;DHT22;27037;52.010;4.446;2023-10-19T02:03:39;14.70;99.90
41294;DHT22;27037;52.010;4.446;2023-10-19T02:06:12;14.70;99.90
41294;DHT22;27037;52.010;4.446;2023-10-19T02:11:26;14.80;99.90
41294;DHT22;27037;52.010;4.446;2023-10-19T02:13:55;14.80;99.90
41294;DHT22;27037;52.010;4.446;2023-10-19T02:16:22;14.80;99.90
41294;DHT22;27037;52.010;4.446;2023-10-19T02:18:49;14.80;99.90
41294;DHT22;27037;52.010;4.446;2023-10-19T02:21:16;14.80;99.90
41294;DHT22;27037;52.010;4.446;2023-10-19T02:23:47;14.80;99.90
41294;DHT22;27037;52.010;4.446;2023-10-19T02:26:19;14.90;99.90
41294;DHT22;27037;52.010;4.446;2023-10-19T02:28:46;14.90;99.90
41294;DHT22;27037;52.010;4.446;2023-10-19T02:31:12;14.90;99.90
41294;DHT22;27037;52.010;4.446;2023-10-19T02:33:44;14.90;99.90
41294;DHT22;27037;52.010;4.446;2023-10-19T02:36:18;14.90;99.90
41294;DHT22;27037;52.010;4.446;2023-10-19T02:38:45;14.90;99.90
41294;DHT22;27037;52.010;4.446;2023-10-19T02:41:15;15.00;99.90
41294;DHT22;27037;52.010;4.446;2023-10-19T02:43:41;15.00;99.90
41294;DHT22;27037;52.010;4.446;2023-10-19T02:46:11;15.00;99.90
41294;DHT22;27037;52.010;4.446;2023-10-19T02:48:39;15.00;99.90
41294;DHT22;27037;52.010;4.446;2023-10-19T02:51:10;15.00;99.90
41294;DHT22;27037;52.010;4.446;2023-10-19T02:53:39;15.10;99.90
41294;DHT22;27037;52.010;4.446;2023-10-19T02:56:12;15.00;99.90
41294;DHT22;27037;52.010;4.446;2023-10-19T02:58:41;15.10;99.90
41294;DHT22;27037;52.010;4.446;2023-10-19T03:01:23;15.10;99.90
41294;DHT22;27037;52.010;4.446;2023-10-19T03:03:54;15.10;99.90
41294;DHT22;27037;52.010;4.446;2023-10-19T03:06:23;15.10;99.90
41294;DHT22;27037;52.010;4.446;2023-10-19T03:08:49;15.00;99.90
41294;DHT22;27037;52.010;4.446;2023-10-19T03:11:29;15.00;99.90
41294;DHT22;27037;52.010;4.446;2023-10-19T03:13:55;15.00;99.90
41294;DHT22;27037;52.010;4.446;2023-10-19T03:16:22;15.00;99.90
41294;DHT22;27037;52.010;4.446;2023-10-19T03:18:49;15.00;99.90
41294;DHT22;27037;52.010;4.446;2023-10-19T03:21:16;15.00;99.90
41294;DHT22;27037;52.010;4.446;2023-10-19T03:23:42;14.90;99.90
41294;DHT22;27037;52.010;4.446;2023-10-19T03:26:08;14.90;99.90
41294;DHT22;27037;52.010;4.446;2023-10-19T03:28:52;14.90;99.90
41294;DHT22;27037;52.010;4.446;2023-10-19T03:31:24;14.80;99.90
41294;DHT22;27037;52.010;4.446;2023-10-19T03:33:51;14.80;99.90
41294;DHT22;27037;52.010;4.446;2023-10-19T03:36:21;14.80;99.90
41294;DHT22;27037;52.010;4.446;2023-10-19T03:38:47;14.70;99.90
41294;DHT22;27037;52.010;4.446;2023-10-19T03:41:15;14.70;99.90
41294;DHT22;27037;52.010;4.446;2023-10-19T03:43:41;14.60;99.90
41294;DHT22;27037;52.010;4.446;2023-10-19T03:46:07;14.60;99.90
41294;DHT22;27037;52.010;4.446;2023-10-19T03:48:50;14.60;99.90
41294;DHT22;27037;52.010;4.446;2023-10-19T03:51:16;14.60;99.90
41294;DHT22;27037;52.010;4.446;2023-10-19T03:53:42;14.50;99.90
41294;DHT22;27037;52.010;4.446;2023-10-19T03:56:19;14.50;99.90
41294;DHT22;27037;52.010;4.446;2023-10-19T03:58:45;14.50;99.90
41294;DHT22;27037;52.010;4.446;2023-10-19T04:01:15;14.50;99.90
41294;DHT22;27037;52.010;4.446;2023-10-19T04:03:42;14.50;99.90
41294;DHT22;27037;52.010;4.446;2023-10-19T04:06:09;14.50;99.90
41294;DHT22;27037;52.010;4.446;2023-10-19T04:08:40;14.50;99.90
41294;DHT22;27037;52.010;4.446;2023-10-19T04:11:06;14.50;99.90
41294;DHT22;27037;52.010;4.446;2023-10-19T04:13:38;14.50;99.90
41294;DHT22;27037;52.010;4.446;2023-10-19T04:16:03;14.50;99.90
41294;DHT22;27037;52.010;4.446;2023-10-19T04:18:31;14.50;99.90
41294;DHT22;27037;52.010;4.446;2023-10-19T04:20:56;14.50;99.90
41294;DHT22;27037;52.010;4.446;2023-10-19T04:23:24;14.50;99.90
41294;DHT22;27037;52.010;4.446;2023-10-19T04:25:53;14.60;99.90
41294;DHT22;27037;52.010;4.446;2023-10-19T04:28:22;14.60;99.90
41294;DHT22;27037;52.010;4.446;2023-10-19T04:30:56;14.60;99.90
41294;DHT22;27037;52.010;4.446;2023-10-19T04:33:26;14.60;99.90
41294;DHT22;27037;52.010;4.446;2023-10-19T04:35:54;14.60;99.90
41294;DHT22;27037;52.010;4.446;2023-10-19T04:38:22;14.60;99.90
41294;DHT22;27037;52.010;4.446;2023-10-19T04:40:48;14.60;99.90
41294;DHT22;27037;52.010;4.446;2023-10-19T04:43:13;14.60;99.90
41294;DHT22;27037;52.010;4.446;2023-10-19T04:45:42;14.60;99.90
41294;DHT22;27037;52.010;4.446;2023-10-19T04:48:10;14.60;99.90
41294;DHT22;27037;52.010;4.446;2023-10-19T04:50:36;14.60;99.90
41294;DHT22;27037;52.010;4.446;2023-10-19T04:53:02;14.60;99.90
41294;DHT22;27037;52.010;4.446;2023-10-19T04:55:29;14.60;99.90
41294;DHT22;27037;52.010;4.446;2023-10-19T04:57:55;14.60;99.90
41294;DHT22;27037;52.010;4.446;2023-10-19T05:00:22;14.60;99.90
41294;DHT22;27037;52.010;4.446;2023-10-19T05:02:50;14.60;99.90
41294;DHT22;27037;52.010;4.446;2023-10-19T05:05:17;14.60;99.90
41294;DHT22;27037;52.010;4.446;2023-10-19T05:07:43;14.60;99.90
41294;DHT22;27037;52.010;4.446;2023-10-19T05:10:09;14.60;99.90
41294;DHT22;27037;52.010;4.446;2023-10-19T05:12:35;14.60;99.90
41294;DHT22;27037;52.010;4.446;2023-10-19T05:15:00;14.60;99.90
41294;DHT22;27037;52.010;4.446;2023-10-19T05:17:26;14.60;99.90
41294;DHT22;27037;52.010;4.446;2023-10-19T05:19:52;14.60;99.90
41294;DHT22;27037;52.010;4.446;2023-10-19T05:22:18;14.60;99.90
41294;DHT22;27037;52.010;4.446;2023-10-19T05:24:44;14.60;99.90
41294;DHT22;27037;52.010;4.446;2023-10-19T05:27:10;14.60;99.90
41294;DHT22;27037;52.010;4.446;2023-10-19T05:29:35;14.60;99.90
41294;DHT22;27037;52.010;4.446;2023-10-19T05:32:01;14.60;99.90
41294;DHT22;27037;52.010;4.446;2023-10-19T05:34:28;14.60;99.90
41294;DHT22;27037;52.010;4.446;2023-10-19T05:37:00;14.60;99.90
41294;DHT22;27037;52.010;4.446;2023-10-19T05:39:28;14.60;99.90
41294;DHT22;27037;52.010;4.446;2023-10-19T05:41:54;14.70;99.90
41294;DHT22;27037;52.010;4.446;2023-10-19T05:44:20;14.60;99.90
41294;DHT22;27037;52.010;4.446;2023-10-19T05:46:46;14.70;99.90
41294;DHT22;27037;52.010;4.446;2023-10-19T05:49:12;14.70;99.90
41294;DHT22;27037;52.010;4.446;2023-10-19T05:51:38;14.70;99.90
41294;DHT22;27037;52.010;4.446;2023-10-19T05:54:04;14.70;99.90
41294;DHT22;27037;52.010;4.446;2023-10-19T05:56:31;14.70;99.90
41294;DHT22;27037;52.010;4.446;2023-10-19T05:58:58;14.70;99.90
41294;DHT22;27037;52.010;4.446;2023-10-19T06:01:24;14.70;99.90
41294;DHT22;27037;52.010;4.446;2023-10-19T06:03:49;14.70;99.90
41294;DHT22;27037;52.010;4.446;2023-10-19T06:06:16;14.70;99.90
41294;DHT22;27037;52.010;4.446;2023-10-19T06:08:41;14.70;99.90
41294;DHT22;27037;52.010;4.446;2023-10-19T06:11:07;14.70;99.90
41294;DHT22;27037;52.010;4.446;2023-10-19T06:13:32;14.70;99.90
41294;DHT22;27037;52.010;4.446;2023-10-19T06:15:58;14.70;99.90
41294;DHT22;27037;52.010;4.446;2023-10-19T06:18:24;14.70;99.90
41294;DHT22;27037;52.010;4.446;2023-10-19T06:20:50;14.80;99.90
41294;DHT22;27037;52.010;4.446;2023-10-19T06:23:17;14.80;99.90
41294;DHT22;27037;52.010;4.446;2023-10-19T06:25:43;14.80;99.90
41294;DHT22;27037;52.010;4.446;2023-10-19T06:28:09;14.80;99.90
41294;DHT22;27037;52.010;4.446;2023-10-19T06:30:37;14.80;99.90
41294;DHT22;27037;52.010;4.446;2023-10-19T06:33:03;14.80;99.90
41294;DHT22;27037;52.010;4.446;2023-10-19T06:35:30;14.80;99.90
41294;DHT22;27037;52.010;4.446;2023-10-19T06:38:00;14.80;99.90
41294;DHT22;27037;52.010;4.446;2023-10-19T06:40:26;14.80;99.90
41294;DHT22;27037;52.010;4.446;2023-10-19T06:42:58;14.90;99.90
41294;DHT22;27037;52.010;4.446;2023-10-19T06:45:24;14.90;99.90
41294;DHT22;27037;52.010;4.446;2023-10-19T06:47:51;14.90;99.90
41294;DHT22;27037;52.010;4.446;2023-10-19T06:50:21;14.90;99.90
41294;DHT22;27037;52.010;4.446;2023-10-19T06:52:47;14.90;99.90
41294;DHT22;27037;52.010;4.446;2023-10-19T06:55:13;14.90;99.90
41294;DHT22;27037;52.010;4.446;2023-10-19T06:57:49;14.90;99.90
41294;DHT22;27037;52.010;4.446;2023-10-19T07:00:17;15.00;99.90
41294;DHT22;27037;52.010;4.446;2023-10-19T07:02:50;15.00;99.90
41294;DHT22;27037;52.010;4.446;2023-10-19T07:05:16;15.00;99.90
41294;DHT22;27037;52.010;4.446;2023-10-19T07:07:50;15.00;99.90
41294;DHT22;27037;52.010;4.446;2023-10-19T07:10:18;15.00;99.90
41294;DHT22;27037;52.010;4.446;2023-10-19T07:12:45;15.10;99.90
41294;DHT22;27037;52.010;4.446;2023-10-19T07:15:12;15.10;99.90
41294;DHT22;27037;52.010;4.446;2023-10-19T07:17:41;15.10;99.90
41294;DHT22;27037;52.010;4.446;2023-10-19T07:20:08;15.10;99.90
41294;DHT22;27037;52.010;4.446;2023-10-19T07:22:42;15.10;99.90
41294;DHT22;27037;52.010;4.446;2023-10-19T07:25:09;15.10;99.90
41294;DHT22;27037;52.010;4.446;2023-10-19T07:27:36;15.10;99.90
41294;DHT22;27037;52.010;4.446;2023-10-19T07:30:02;15.10;99.90
41294;DHT22;27037;52.010;4.446;2023-10-19T07:32:31;15.10;99.90
41294;DHT22;27037;52.010;4.446;2023-10-19T07:34:58;15.10;99.90
41294;DHT22;27037;52.010;4.446;2023-10-19T07:37:24;15.10;99.90
41294;DHT22;27037;52.010;4.446;2023-10-19T07:39:50;15.20;99.90
41294;DHT22;27037;52.010;4.446;2023-10-19T07:42:17;15.10;99.90
41294;DHT22;27037;52.010;4.446;2023-10-19T07:44:43;15.20;99.90
41294;DHT22;27037;52.010;4.446;2023-10-19T07:47:11;15.20;99.90
41294;DHT22;27037;52.010;4.446;2023-10-19T07:49:37;15.20;99.90
41294;DHT22;27037;52.010;4.446;2023-10-19T07:52:06;15.20;99.90
41294;DHT22;27037;52.010;4.446;2023-10-19T07:54:33;15.20;99.90
41294;DHT22;27037;52.010;4.446;2023-10-19T07:56:59;15.30;99.90
41294;DHT22;27037;52.010;4.446;2023-10-19T07:59:29;15.30;99.90
41294;DHT22;27037;52.010;4.446;2023-10-19T08:01:54;15.30;99.90
41294;DHT22;27037;52.010;4.446;2023-10-19T08:04:20;15.30;99.90
41294;DHT22;27037;52.010;4.446;2023-10-19T08:06:45;15.40;99.90
41294;DHT22;27037;52.010;4.446;2023-10-19T08:09:12;15.40;99.90
41294;DHT22;27037;52.010;4.446;2023-10-19T08:11:38;15.40;99.90
41294;DHT22;27037;52.010;4.446;2023-10-19T08:14:03;15.40;99.90
41294;DHT22;27037;52.010;4.446;2023-10-19T08:16:30;15.50;99.90
41294;DHT22;27037;52.010;4.446;2023-10-19T08:18:57;15.50;99.90
41294;DHT22;27037;52.010;4.446;2023-10-19T08:21:23;15.50;99.90
41294;DHT22;27037;52.010;4.446;2023-10-19T08:23:48;15.50;99.90
41294;DHT22;27037;52.010;4.446;2023-10-19T08:26:14;15.50;99.90
41294;DHT22;27037;52.010;4.446;2023-10-19T08:28:40;15.60;99.90
41294;DHT22;27037;52.010;4.446;2023-10-19T08:31:08;15.60;99.90
41294;DHT22;27037;52.010;4.446;2023-10-19T08:33:35;15.60;99.90
41294;DHT22;27037;52.010;4.446;2023-10-19T08:36:04;15.70;99.90
41294;DHT22;27037;52.010;4.446;2023-10-19T08:38:30;15.70;99.90
41294;DHT22;27037;52.010;4.446;2023-10-19T08:40:56;15.80;99.90
41294;DHT22;27037;52.010;4.446;2023-10-19T08:43:23;15.80;99.90
41294;DHT22;27037;52.010;4.446;2023-10-19T08:45:49;15.90;99.90
41294;DHT22;27037;52.010;4.446;2023-10-19T08:48:15;15.90;99.90
41294;DHT22;27037;52.010;4.446;2023-10-19T08:50:40;16.00;99.90
41294;DHT22;27037;52.010;4.446;2023-10-19T08:53:08;16.00;99.90
41294;DHT22;27037;52.010;4.446;2023-10-19T08:55:35;16.10;99.90
41294;DHT22;27037;52.010;4.446;2023-10-19T08:58:01;16.10;99.90
41294;DHT22;27037;52.010;4.446;2023-10-19T09:00:27;16.20;99.90
41294;DHT22;27037;52.010;4.446;2023-10-19T09:02:56;16.20;99.90
41294;DHT22;27037;52.010;4.446;2023-10-19T09:05:22;16.20;99.90
41294;DHT22;27037;52.010;4.446;2023-10-19T09:07:51;16.30;99.90
41294;DHT22;27037;52.010;4.446;2023-10-19T09:13:02;16.30;99.90
41294;DHT22;27037;52.010;4.446;2023-10-19T09:15:29;16.40;99.90
41294;DHT22;27037;52.010;4.446;2023-10-19T09:17:58;16.50;99.90
41294;DHT22;27037;52.010;4.446;2023-10-19T09:20:24;16.50;99.90
41294;DHT22;27037;52.010;4.446;2023-10-19T09:22:56;16.50;99.90
41294;DHT22;27037;52.010;4.446;2023-10-19T09:25:27;16.60;99.90
41294;DHT22;27037;52.010;4.446;2023-10-19T09:27:53;16.60;99.90
41294;DHT22;27037;52.010;4.446;2023-10-19T09:30:19;16.70;99.90
41294;DHT22;27037;52.010;4.446;2023-10-19T09:32:47;16.70;99.90
41294;DHT22;27037;52.010;4.446;2023-10-19T09:35:14;16.80;99.90
41294;DHT22;27037;52.010;4.446;2023-10-19T09:37:42;16.90;99.90
41294;DHT22;27037;52.010;4.446;2023-10-19T09:40:09;16.90;99.90
41294;DHT22;27037;52.010;4.446;2023-10-19T09:42:43;17.00;99.90
41294;DHT22;27037;52.010;4.446;2023-10-19T09:45:12;17.00;99.90
41294;DHT22;27037;52.010;4.446;2023-10-19T09:47:45;17.00;99.90
41294;DHT22;27037;52.010;4.446;2023-10-19T09:50:13;17.10;99.90
41294;DHT22;27037;52.010;4.446;2023-10-19T09:52:39;17.10;99.90
41294;DHT22;27037;52.010;4.446;2023-10-19T10:00:12;17.10;99.90
41294;DHT22;27037;52.010;4.446;2023-10-19T10:02:44;17.20;99.90
41294;DHT22;27037;52.010;4.446;2023-10-19T10:05:44;17.10;99.90
41294;DHT22;27037;52.010;4.446;2023-10-19T10:08:29;17.10;99.90
41294;DHT22;27037;52.010;4.446;2023-10-19T10:10:55;17.10;99.90
41294;DHT22;27037;52.010;4.446;2023-10-19T10:15:53;17.10;99.90
41294;DHT22;27037;52.010;4.446;2023-10-19T10:18:20;17.20;99.90
41294;DHT22;27037;52.010;4.446;2023-10-19T10:20:45;17.20;99.90
41294;DHT22;27037;52.010;4.446;2023-10-19T10:23:17;17.30;99.90
41294;DHT22;27037;52.010;4.446;2023-10-19T10:25:47;17.30;99.90
41294;DHT22;27037;52.010;4.446;2023-10-19T10:28:19;17.40;99.90
41294;DHT22;27037;52.010;4.446;2023-10-19T10:33:42;17.70;99.90
41294;DHT22;27037;52.010;4.446;2023-10-19T10:36:13;17.80;99.90
41294;DHT22;27037;52.010;4.446;2023-10-19T10:38:39;17.90;99.90
41294;DHT22;27037;52.010;4.446;2023-10-19T10:41:06;18.00;99.90
41294;DHT22;27037;52.010;4.446;2023-10-19T10:43:48;18.10;99.90
41294;DHT22;27037;52.010;4.446;2023-10-19T10:46:13;18.20;99.90
41294;DHT22;27037;52.010;4.446;2023-10-19T10:48:42;18.20;99.90
41294;DHT22;27037;52.010;4.446;2023-10-19T10:51:22;18.20;99.90
41294;DHT22;27037;52.010;4.446;2023-10-19T10:53:49;18.10;99.90
41294;DHT22;27037;52.010;4.446;2023-10-19T10:56:16;18.10;99.90
41294;DHT22;27037;52.010;4.446;2023-10-19T10:58:42;18.10;99.90
41294;DHT22;27037;52.010;4.446;2023-10-19T11:01:07;18.10;99.90
41294;DHT22;27037;52.010;4.446;2023-10-19T11:03:33;18.20;99.90
41294;DHT22;27037;52.010;4.446;2023-10-19T11:06:09;18.30;99.90
41294;DHT22;27037;52.010;4.446;2023-10-19T11:08:36;18.50;99.90
41294;DHT22;27037;52.010;4.446;2023-10-19T11:11:09;18.60;99.90
41294;DHT22;27037;52.010;4.446;2023-10-19T11:13:38;18.70;99.90
41294;DHT22;27037;52.010;4.446;2023-10-19T11:16:06;18.80;99.90
41294;DHT22;27037;52.010;4.446;2023-10-19T11:18:39;18.80;99.90
41294;DHT22;27037;52.010;4.446;2023-10-19T11:21:09;18.80;99.90
41294;DHT22;27037;52.010;4.446;2023-10-19T11:23:43;18.80;99.90
41294;DHT22;27037;52.010;4.446;2023-10-19T11:26:14;18.80;99.90
41294;DHT22;27037;52.010;4.446;2023-10-19T11:28:40;18.70;99.90
41294;DHT22;27037;52.010;4.446;2023-10-19T11:31:13;18.80;99.90
41294;DHT22;27037;52.010;4.446;2023-10-19T11:33:40;18.70;99.90
41294;DHT22;27037;52.010;4.446;2023-10-19T11:36:07;18.70;99.90
41294;DHT22;27037;52.010;4.446;2023-10-19T11:38:32;18.70;99.90
41294;DHT22;27037;52.010;4.446;2023-10-19T11:40:58;18.70;99.90
41294;DHT22;27037;52.010;4.446;2023-10-19T11:43:23;18.70;99.90
41294;DHT22;27037;52.010;4.446;2023-10-19T11:45:49;18.70;99.90
41294;DHT22;27037;52.010;4.446;2023-10-19T11:48:15;18.70;99.90
41294;DHT22;27037;52.010;4.446;2023-10-19T11:50:41;18.60;99.90
41294;DHT22;27037;52.010;4.446;2023-10-19T11:53:06;18.60;99.90
41294;DHT22;27037;52.010;4.446;2023-10-19T11:55:35;18.60;99.90
41294;DHT22;27037;52.010;4.446;2023-10-19T11:58:00;18.60;99.90
41294;DHT22;27037;52.010;4.446;2023-10-19T12:00:26;18.60;99.90
41294;DHT22;27037;52.010;4.446;2023-10-19T12:02:59;18.50;99.90
41294;DHT22;27037;52.010;4.446;2023-10-19T12:05:25;18.50;99.90
41294;DHT22;27037;52.010;4.446;2023-10-19T12:07:51;18.50;99.90
41294;DHT22;27037;52.010;4.446;2023-10-19T12:10:17;18.40;99.90
41294;DHT22;27037;52.010;4.446;2023-10-19T12:12:46;18.40;99.90
41294;DHT22;27037;52.010;4.446;2023-10-19T12:15:12;18.30;99.90
41294;DHT22;27037;52.010;4.446;2023-10-19T12:17:38;18.30;99.90
41294;DHT22;27037;52.010;4.446;2023-10-19T12:20:04;18.20;99.90
41294;DHT22;27037;52.010;4.446;2023-10-19T12:22:32;18.20;99.90
41294;DHT22;27037;52.010;4.446;2023-10-19T12:25:01;18.20;99.90
41294;DHT22;27037;52.010;4.446;2023-10-19T12:27:28;18.10;99.90
41294;DHT22;27037;52.010;4.446;2023-10-19T12:29:54;18.10;99.90
41294;DHT22;27037;52.010;4.446;2023-10-19T12:32:20;18.10;99.90
41294;DHT22;27037;52.010;4.446;2023-10-19T12:34:47;18.00;99.90
41294;DHT22;27037;52.010;4.446;2023-10-19T12:37:18;18.00;99.90
41294;DHT22;27037;52.010;4.446;2023-10-19T12:39:44;18.00;99.90
41294;DHT22;27037;52.010;4.446;2023-10-19T12:42:16;17.90;99.90
41294;DHT22;27037;52.010;4.446;2023-10-19T12:44:42;17.90;99.90
41294;DHT22;27037;52.010;4.446;2023-10-19T12:47:09;17.90;99.90
41294;DHT22;27037;52.010;4.446;2023-10-19T12:49:37;17.80;99.90
41294;DHT22;27037;52.010;4.446;2023-10-19T12:52:03;17.80;99.90
41294;DHT22;27037;52.010;4.446;2023-10-19T12:54:29;17.80;99.90
41294;DHT22;27037;52.010;4.446;2023-10-19T12:56:55;17.80;99.90
41294;DHT22;27037;52.010;4.446;2023-10-19T12:59:21;17.80;99.90
41294;DHT22;27037;52.010;4.446;2023-10-19T13:01:48;17.80;99.90
41294;DHT22;27037;52.010;4.446;2023-10-19T13:04:15;17.80;99.90
41294;DHT22;27037;52.010;4.446;2023-10-19T13:06:44;17.80;99.90
41294;DHT22;27037;52.010;4.446;2023-10-19T13:09:12;17.80;99.90
41294;DHT22;27037;52.010;4.446;2023-10-19T13:11:41;17.80;99.90
41294;DHT22;27037;52.010;4.446;2023-10-19T13:14:09;17.80;99.90
41294;DHT22;27037;52.010;4.446;2023-10-19T13:16:35;17.80;99.90
41294;DHT22;27037;52.010;4.446;2023-10-19T13:19:01;17.80;99.90
41294;DHT22;27037;52.010;4.446;2023-10-19T13:21:38;17.80;99.90
41294;DHT22;27037;52.010;4.446;2023-10-19T13:24:04;17.70;99.90
41294;DHT22;27037;52.010;4.446;2023-10-19T13:26:31;17.80;99.90
41294;DHT22;27037;52.010;4.446;2023-10-19T13:28:57;17.70;99.90
41294;DHT22;27037;52.010;4.446;2023-10-19T13:31:23;17.70;99.90
41294;DHT22;27037;52.010;4.446;2023-10-19T13:33:52;17.70;99.90
41294;DHT22;27037;52.010;4.446;2023-10-19T13:36:18;17.70;99.90
41294;DHT22;27037;52.010;4.446;2023-10-19T13:38:45;17.60;99.90
41294;DHT22;27037;52.010;4.446;2023-10-19T13:41:10;17.60;99.90
41294;DHT22;27037;52.010;4.446;2023-10-19T13:43:37;17.60;99.90
41294;DHT22;27037;52.010;4.446;2023-10-19T13:46:02;17.60;99.90
41294;DHT22;27037;52.010;4.446;2023-10-19T13:48:30;17.60;99.90
41294;DHT22;27037;52.010;4.446;2023-10-19T13:50:56;17.60;99.90
41294;DHT22;27037;52.010;4.446;2023-10-19T13:53:48;17.50;99.90
41294;DHT22;27037;52.010;4.446;2023-10-19T13:56:15;17.50;99.90
41294;DHT22;27037;52.010;4.446;2023-10-19T13:58:41;17.50;99.90
41294;DHT22;27037;52.010;4.446;2023-10-19T14:01:07;17.40;99.90
41294;DHT22;27037;52.010;4.446;2023-10-19T14:03:34;17.40;99.90
41294;DHT22;27037;52.010;4.446;2023-10-19T14:06:00;17.30;99.90
41294;DHT22;27037;52.010;4.446;2023-10-19T14:08:25;17.30;99.90
41294;DHT22;27037;52.010;4.446;2023-10-19T14:10:51;17.20;99.90
41294;DHT22;27037;52.010;4.446;2023-10-19T14:13:16;17.20;99.90
41294;DHT22;27037;52.010;4.446;2023-10-19T14:15:42;17.20;99.90
41294;DHT22;27037;52.010;4.446;2023-10-19T14:18:09;17.20;99.90
41294;DHT22;27037;52.010;4.446;2023-10-19T14:20:34;17.10;99.90
41294;DHT22;27037;52.010;4.446;2023-10-19T14:23:01;17.10;99.90
41294;DHT22;27037;52.010;4.446;2023-10-19T14:25:28;17.10;99.90
41294;DHT22;27037;52.010;4.446;2023-10-19T14:27:55;17.00;99.90
41294;DHT22;27037;52.010;4.446;2023-10-19T14:30:28;17.10;99.90
41294;DHT22;27037;52.010;4.446;2023-10-19T14:32:54;17.00;99.90
41294;DHT22;27037;52.010;4.446;2023-10-19T14:35:21;17.00;99.90
41294;DHT22;27037;52.010;4.446;2023-10-19T14:37:51;17.00;99.90
41294;DHT22;27037;52.010;4.446;2023-10-19T14:40:21;17.00;99.90
41294;DHT22;27037;52.010;4.446;2023-10-19T14:42:49;17.00;99.90
41294;DHT22;27037;52.010;4.446;2023-10-19T14:45:17;16.90;99.90
41294;DHT22;27037;52.010;4.446;2023-10-19T14:47:50;17.00;99.90
41294;DHT22;27037;52.010;4.446;2023-10-19T14:50:19;17.00;99.90
41294;DHT22;27037;52.010;4.446;2023-10-19T14:52:46;17.00;99.90
41294;DHT22;27037;52.010;4.446;2023-10-19T14:55:13;17.00;99.90
41294;DHT22;27037;52.010;4.446;2023-10-19T14:57:43;17.00;99.90
41294;DHT22;27037;52.010;4.446;2023-10-19T15:00:11;17.10;99.90
41294;DHT22;27037;52.010;4.446;2023-10-19T15:02:51;17.10;99.90
41294;DHT22;27037;52.010;4.446;2023-10-19T15:05:17;17.10;99.90
41294;DHT22;27037;52.010;4.446;2023-10-19T15:07:46;17.10;99.90
41294;DHT22;27037;52.010;4.446;2023-10-19T15:10:12;17.10;99.90
41294;DHT22;27037;52.010;4.446;2023-10-19T15:12:41;17.10;99.90
41294;DHT22;27037;52.010;4.446;2023-10-19T15:15:08;17.10;99.90
41294;DHT22;27037;52.010;4.446;2023-10-19T15:17:46;17.10;99.90
41294;DHT22;27037;52.010;4.446;2023-10-19T15:20:13;17.10;99.90
41294;DHT22;27037;52.010;4.446;2023-10-19T15:22:43;17.10;99.90
41294;DHT22;27037;52.010;4.446;2023-10-19T15:25:09;17.10;99.90
41294;DHT22;27037;52.010;4.446;2023-10-19T15:27:42;17.10;99.90
41294;DHT22;27037;52.010;4.446;2023-10-19T15:30:10;17.10;99.90
41294;DHT22;27037;52.010;4.446;2023-10-19T15:32:37;17.10;99.90
41294;DHT22;27037;52.010;4.446;2023-10-19T15:35:03;17.10;99.90
41294;DHT22;27037;52.010;4.446;2023-10-19T15:37:29;17.10;99.90
41294;DHT22;27037;52.010;4.446;2023-10-19T15:39:55;17.10;99.90
41294;DHT22;27037;52.010;4.446;2023-10-19T15:42:20;17.10;99.90
41294;DHT22;27037;52.010;4.446;2023-10-19T15:44:50;17.10;99.90
41294;DHT22;27037;52.010;4.446;2023-10-19T15:47:16;17.10;99.90
41294;DHT22;27037;52.010;4.446;2023-10-19T15:49:51;17.10;99.90
41294;DHT22;27037;52.010;4.446;2023-10-19T15:52:24;17.10;99.90
41294;DHT22;27037;52.010;4.446;2023-10-19T15:54:51;17.00;99.90